sensor_id;sensor_type;location;lat;lon;timestamp;temperature;humidity
41168;DHT22;26906;45.658;9.272;2023-01-10T06:36:29;8.80;99.90
41168;DHT22;26906;45.658;9.272;2023-01-10T06:38:55;9.10;99.90
41168;DHT22;26906;45.658;9.272;2023-01-10T06:41:21;9.10;99.90
41168;DHT22;26906;45.658;9.272;2023-01-10T06:43:48;9.30;99.90
41168;DHT22;26906;45.658;9.272;2023-01-10T06:46:15;9.30;99.90
41168;DHT22;26906;45.658;9.272;2023-01-10T06:48:43;9.40;99.90
41168;DHT22;26906;45.658;9.272;2023-01-10T06:51:10;9.30;99.90
41168;DHT22;26906;45.658;9.272;2023-01-10T06:53:37;9.50;99.90
41168;DHT22;26906;45.658;9.272;2023-01-10T06:56:03;9.30;99.90
41168;DHT22;26906;45.658;9.272;2023-01-10T06:58:31;9.30;99.90
41168;DHT22;26906;45.658;9.272;2023-01-10T07:00:57;9.30;99.90
41168;DHT22;26906;45.658;9.272;2023-01-10T07:03:23;9.30;99.90
41168;DHT22;26906;45.658;9.272;2023-01-10T07:05:49;9.30;99.90
41168;DHT22;26906;45.658;9.272;2023-01-10T07:08:15;9.30;99.90
41168;DHT22;26906;45.658;9.272;2023-01-10T07:10:41;9.20;99.90
41168;DHT22;26906;45.658;9.272;2023-01-10T07:13:07;9.20;99.90
41168;DHT22;26906;45.658;9.272;2023-01-10T07:15:33;9.20;99.90
41168;DHT22;26906;45.658;9.272;2023-01-10T07:17:59;9.20;99.90
41168;DHT22;26906;45.658;9.272;2023-01-10T07:20:26;9.20;99.90
41168;DHT22;26906;45.658;9.272;2023-01-10T07:22:59;9.30;99.90
41168;DHT22;26906;45.658;9.272;2023-01-10T07:25:26;9.10;99.90
41168;DHT22;26906;45.658;9.272;2023-01-10T07:27:52;9.20;99.90
41168;DHT22;26906;45.658;9.272;2023-01-10T07:30:22;9.20;99.90
41168;DHT22;26906;45.658;9.272;2023-01-10T07:32:56;9.10;99.90
41168;DHT22;26906;45.658;9.272;2023-01-10T07:35:23;9.00;99.90
41168;DHT22;26906;45.658;9.272;2023-01-10T07:37:49;8.80;99.90
41168;DHT22;26906;45.658;9.272;2023-01-10T07:40:15;8.90;99.90
41168;DHT22;26906;45.658;9.272;2023-01-10T07:42:41;8.80;99.90
41168;DHT22;26906;45.658;9.272;2023-01-10T07:45:07;8.90;99.90
41168;DHT22;26906;45.658;9.272;2023-01-10T07:47:33;8.80;99.90
41168;DHT22;26906;45.658;9.272;2023-01-10T07:49:59;8.80;99.90
41168;DHT22;26906;45.658;9.272;2023-01-10T07:52:25;8.90;99.90
41168;DHT22;26906;45.658;9.272;2023-01-10T07:54:50;9.00;99.90
41168;DHT22;26906;45.658;9.272;2023-01-10T07:57:17;9.10;99.90
41168;DHT22;26906;45.658;9.272;2023-01-10T07:59:43;9.10;99.90
41168;DHT22;26906;45.658;9.272;2023-01-10T08:02:10;9.30;99.90
41168;DHT22;26906;45.658;9.272;2023-01-10T08:04:36;9.30;99.90
41168;DHT22;26906;45.658;9.272;2023-01-10T08:07:03;9.40;99.90
41168;DHT22;26906;45.658;9.272;2023-01-10T08:09:29;9.50;99.90
41168;DHT22;26906;45.658;9.272;2023-01-10T08:11:54;9.60;99.90
41168;DHT22;26906;45.658;9.272;2023-01-10T08:14:20;9.60;99.90
41168;DHT22;26906;45.658;9.272;2023-01-10T08:16:46;10.00;99.90
41168;DHT22;26906;45.658;9.272;2023-01-10T08:19:11;9.90;99.80
41168;DHT22;26906;45.658;9.272;2023-01-10T08:21:41;10.10;99.90
41168;DHT22;26906;45.658;9.272;2023-01-10T08:24:07;10.30;99.90
41168;DHT22;26906;45.658;9.272;2023-01-10T08:26:33;10.30;99.90
41168;DHT22;26906;45.658;9.272;2023-01-10T08:29:00;10.40;99.90
41168;DHT22;26906;45.658;9.272;2023-01-10T08:31:26;10.60;99.90
41168;DHT22;26906;45.658;9.272;2023-01-10T08:33:52;10.60;99.90
41168;DHT22;26906;45.658;9.272;2023-01-10T08:36:19;10.70;99.90
41168;DHT22;26906;45.658;9.272;2023-01-10T08:38:46;10.80;99.20
41168;DHT22;26906;45.658;9.272;2023-01-10T08:41:13;10.90;98.70
41168;DHT22;26906;45.658;9.272;2023-01-10T08:43:39;11.10;98.70
41168;DHT22;26906;45.658;9.272;2023-01-10T08:46:05;11.20;99.00
41168;DHT22;26906;45.658;9.272;2023-01-10T08:48:31;11.40;95.70
41168;DHT22;26906;45.658;9.272;2023-01-10T08:50:57;11.60;95.40
41168;DHT22;26906;45.658;9.272;2023-01-10T08:53:22;11.70;96.00
41168;DHT22;26906;45.658;9.272;2023-01-10T08:55:48;11.90;92.50
41168;DHT22;26906;45.658;9.272;2023-01-10T08:58:14;12.20;92.60
41168;DHT22;26906;45.658;9.272;2023-01-10T09:00:40;12.30;92.80
41168;DHT22;26906;45.658;9.272;2023-01-10T09:03:06;12.30;93.10
41168;DHT22;26906;45.658;9.272;2023-01-10T09:05:33;12.40;91.70
41168;DHT22;26906;45.658;9.272;2023-01-10T09:08:01;12.60;91.90
41168;DHT22;26906;45.658;9.272;2023-01-10T09:10:28;12.60;90.80
41168;DHT22;26906;45.658;9.272;2023-01-10T09:12:58;12.70;91.70
41168;DHT22;26906;45.658;9.272;2023-01-10T09:15:33;12.80;90.10
41168;DHT22;26906;45.658;9.272;2023-01-10T09:18:00;12.90;88.90
41168;DHT22;26906;45.658;9.272;2023-01-10T09:20:27;13.10;90.40
41168;DHT22;26906;45.658;9.272;2023-01-10T09:22:54;12.90;88.00
41168;DHT22;26906;45.658;9.272;2023-01-10T09:25:19;13.00;86.60
41168;DHT22;26906;45.658;9.272;2023-01-10T09:27:45;13.10;86.50
41168;DHT22;26906;45.658;9.272;2023-01-10T09:30:11;13.20;89.20
41168;DHT22;26906;45.658;9.272;2023-01-10T09:32:37;13.30;84.70
41168;DHT22;26906;45.658;9.272;2023-01-10T09:35:03;13.30;84.40
41168;DHT22;26906;45.658;9.272;2023-01-10T09:37:29;13.40;83.40
41168;DHT22;26906;45.658;9.272;2023-01-10T09:39:54;13.50;85.60
41168;DHT22;26906;45.658;9.272;2023-01-10T09:45:13;13.80;89.10
41168;DHT22;26906;45.658;9.272;2023-01-10T09:53:21;14.20;86.40
41168;DHT22;26906;45.658;9.272;2023-01-10T09:55:56;14.40;86.80
41168;DHT22;26906;45.658;9.272;2023-01-10T09:58:25;14.50;88.00
41168;DHT22;26906;45.658;9.272;2023-01-10T10:01:15;14.40;86.20
41168;DHT22;26906;45.658;9.272;2023-01-10T10:03:52;14.50;85.10
41168;DHT22;26906;45.658;9.272;2023-01-10T10:06:22;14.50;80.30
41168;DHT22;26906;45.658;9.272;2023-01-10T10:08:48;14.50;85.60
41168;DHT22;26906;45.658;9.272;2023-01-10T10:22:15;14.60;83.40
41168;DHT22;26906;45.658;9.272;2023-01-10T10:24:56;14.60;78.50
41168;DHT22;26906;45.658;9.272;2023-01-10T10:32:52;14.30;78.70
41168;DHT22;26906;45.658;9.272;2023-01-10T10:35:35;14.20;77.80
41168;DHT22;26906;45.658;9.272;2023-01-10T10:38:13;14.50;79.00
41168;DHT22;26906;45.658;9.272;2023-01-10T10:40:43;14.50;78.60
41168;DHT22;26906;45.658;9.272;2023-01-10T10:43:33;14.50;79.50
41168;DHT22;26906;45.658;9.272;2023-01-10T10:46:06;14.50;77.50
41168;DHT22;26906;45.658;9.272;2023-01-10T10:48:41;14.30;76.50
41168;DHT22;26906;45.658;9.272;2023-01-10T10:51:45;14.40;78.40
41168;DHT22;26906;45.658;9.272;2023-01-10T10:54:12;14.70;79.10
41168;DHT22;26906;45.658;9.272;2023-01-10T10:56:41;14.80;77.40
41168;DHT22;26906;45.658;9.272;2023-01-10T10:59:08;14.80;76.70
41168;DHT22;26906;45.658;9.272;2023-01-10T11:01:34;14.80;77.90
41168;DHT22;26906;45.658;9.272;2023-01-10T11:04:00;15.00;77.90
41168;DHT22;26906;45.658;9.272;2023-01-10T11:06:29;15.10;78.70
41168;DHT22;26906;45.658;9.272;2023-01-10T11:08:57;15.10;75.80
41168;DHT22;26906;45.658;9.272;2023-01-10T11:11:33;15.10;76.70
41168;DHT22;26906;45.658;9.272;2023-01-10T11:14:05;15.00;76.50
41168;DHT22;26906;45.658;9.272;2023-01-10T11:21:39;14.70;74.60
41168;DHT22;26906;45.658;9.272;2023-01-10T11:24:34;14.60;75.10
41168;DHT22;26906;45.658;9.272;2023-01-10T11:27:04;14.70;73.80
41168;DHT22;26906;45.658;9.272;2023-01-10T11:29:43;14.70;74.10
41168;DHT22;26906;45.658;9.272;2023-01-10T11:32:16;14.80;73.40
41168;DHT22;26906;45.658;9.272;2023-01-10T11:34:54;14.70;74.40
41168;DHT22;26906;45.658;9.272;2023-01-10T11:37:28;14.60;73.40
41168;DHT22;26906;45.658;9.272;2023-01-10T11:40:19;14.60;72.40
41168;DHT22;26906;45.658;9.272;2023-01-10T11:42:48;14.70;72.60
41168;DHT22;26906;45.658;9.272;2023-01-10T11:50:11;14.70;71.40
41168;DHT22;26906;45.658;9.272;2023-01-10T11:52:42;14.90;71.30
41168;DHT22;26906;45.658;9.272;2023-01-10T11:55:09;14.80;70.10
41168;DHT22;26906;45.658;9.272;2023-01-10T11:57:35;15.10;71.40
41168;DHT22;26906;45.658;9.272;2023-01-10T12:00:07;15.20;69.80
41168;DHT22;26906;45.658;9.272;2023-01-10T12:02:44;15.30;71.60
41168;DHT22;26906;45.658;9.272;2023-01-10T12:05:17;15.40;71.00
41168;DHT22;26906;45.658;9.272;2023-01-10T12:08:00;15.50;70.30
41168;DHT22;26906;45.658;9.272;2023-01-10T12:10:31;15.50;69.90
41168;DHT22;26906;45.658;9.272;2023-01-10T12:13:01;15.80;72.20
41168;DHT22;26906;45.658;9.272;2023-01-10T12:15:32;16.00;73.00
41168;DHT22;26906;45.658;9.272;2023-01-10T12:18:01;16.10;71.20
41168;DHT22;26906;45.658;9.272;2023-01-10T12:20:30;16.30;88.20
41168;DHT22;26906;45.658;9.272;2023-01-10T12:23:01;16.10;72.30
41168;DHT22;26906;45.658;9.272;2023-01-10T12:25:36;16.00;70.00
41168;DHT22;26906;45.658;9.272;2023-01-10T12:28:02;15.80;69.00
41168;DHT22;26906;45.658;9.272;2023-01-10T12:30:40;15.90;72.90
41168;DHT22;26906;45.658;9.272;2023-01-10T12:33:40;16.00;72.10
41168;DHT22;26906;45.658;9.272;2023-01-10T12:39:27;15.70;68.10
41168;DHT22;26906;45.658;9.272;2023-01-10T12:44:59;15.60;67.60
41168;DHT22;26906;45.658;9.272;2023-01-10T12:50:02;15.70;68.20
41168;DHT22;26906;45.658;9.272;2023-01-10T12:52:47;15.60;67.60
41168;DHT22;26906;45.658;9.272;2023-01-10T12:55:18;15.60;66.30
41168;DHT22;26906;45.658;9.272;2023-01-10T12:57:47;15.50;66.00
41168;DHT22;26906;45.658;9.272;2023-01-10T13:00:27;15.70;66.90
41168;DHT22;26906;45.658;9.272;2023-01-10T13:02:55;15.60;66.20
41168;DHT22;26906;45.658;9.272;2023-01-10T13:05:24;15.50;66.30
41168;DHT22;26906;45.658;9.272;2023-01-10T13:07:52;15.50;66.20
41168;DHT22;26906;45.658;9.272;2023-01-10T13:10:21;15.60;66.20
41168;DHT22;26906;45.658;9.272;2023-01-10T13:12:53;15.70;66.30
41168;DHT22;26906;45.658;9.272;2023-01-10T13:15:46;15.60;65.70
41168;DHT22;26906;45.658;9.272;2023-01-10T13:18:25;15.50;66.30
41168;DHT22;26906;45.658;9.272;2023-01-10T13:21:10;15.50;66.50
41168;DHT22;26906;45.658;9.272;2023-01-10T13:24:21;15.60;66.50
41168;DHT22;26906;45.658;9.272;2023-01-10T13:26:54;15.40;65.50
41168;DHT22;26906;45.658;9.272;2023-01-10T13:31:48;15.70;67.30
41168;DHT22;26906;45.658;9.272;2023-01-10T13:34:25;15.60;66.30
41168;DHT22;26906;45.658;9.272;2023-01-10T13:36:55;15.60;66.10
41168;DHT22;26906;45.658;9.272;2023-01-10T13:39:43;15.80;67.50
41168;DHT22;26906;45.658;9.272;2023-01-10T13:45:13;15.80;66.30
41168;DHT22;26906;45.658;9.272;2023-01-10T14:00:45;15.70;66.30
41168;DHT22;26906;45.658;9.272;2023-01-10T14:03:52;15.70;67.20
41168;DHT22;26906;45.658;9.272;2023-01-10T14:08:58;15.50;66.60
41168;DHT22;26906;45.658;9.272;2023-01-10T14:14:20;15.50;68.00
41168;DHT22;26906;45.658;9.272;2023-01-10T14:16:50;15.40;66.30
41168;DHT22;26906;45.658;9.272;2023-01-10T14:19:26;15.30;66.60
41168;DHT22;26906;45.658;9.272;2023-01-10T14:21:54;15.20;66.60
41168;DHT22;26906;45.658;9.272;2023-01-10T14:24:44;15.20;65.70
41168;DHT22;26906;45.658;9.272;2023-01-10T14:27:19;15.10;66.00
41168;DHT22;26906;45.658;9.272;2023-01-10T14:29:56;15.00;65.40
41168;DHT22;26906;45.658;9.272;2023-01-10T14:32:38;14.90;65.70
41168;DHT22;26906;45.658;9.272;2023-01-10T14:35:07;15.00;66.50
41168;DHT22;26906;45.658;9.272;2023-01-10T14:37:39;14.90;65.90
41168;DHT22;26906;45.658;9.272;2023-01-10T14:40:39;14.80;66.20
41168;DHT22;26906;45.658;9.272;2023-01-10T14:43:27;14.90;67.50
41168;DHT22;26906;45.658;9.272;2023-01-10T14:46:33;14.80;67.00
41168;DHT22;26906;45.658;9.272;2023-01-10T14:51:42;14.70;68.40
41168;DHT22;26906;45.658;9.272;2023-01-10T14:54:12;14.50;67.10
41168;DHT22;26906;45.658;9.272;2023-01-10T14:56:42;14.60;67.40
41168;DHT22;26906;45.658;9.272;2023-01-10T14:59:31;14.60;69.30
41168;DHT22;26906;45.658;9.272;2023-01-10T15:02:23;14.60;68.10
41168;DHT22;26906;45.658;9.272;2023-01-10T15:07:22;14.40;67.60
41168;DHT22;26906;45.658;9.272;2023-01-10T15:09:51;14.40;67.30
41168;DHT22;26906;45.658;9.272;2023-01-10T15:12:18;14.30;67.50
41168;DHT22;26906;45.658;9.272;2023-01-10T15:14:46;14.30;66.90
41168;DHT22;26906;45.658;9.272;2023-01-10T15:17:17;14.30;66.70
41168;DHT22;26906;45.658;9.272;2023-01-10T15:19:46;14.30;67.50
41168;DHT22;26906;45.658;9.272;2023-01-10T15:22:33;14.30;66.30
41168;DHT22;26906;45.658;9.272;2023-01-10T15:25:41;14.20;66.10
41168;DHT22;26906;45.658;9.272;2023-01-10T15:28:16;14.10;66.80
41168;DHT22;26906;45.658;9.272;2023-01-10T15:30:44;14.00;65.70
41168;DHT22;26906;45.658;9.272;2023-01-10T15:33:18;13.90;65.90
41168;DHT22;26906;45.658;9.272;2023-01-10T15:35:45;13.80;66.20
41168;DHT22;26906;45.658;9.272;2023-01-10T15:38:15;13.50;65.10
41168;DHT22;26906;45.658;9.272;2023-01-10T15:40:41;13.50;65.70
41168;DHT22;26906;45.658;9.272;2023-01-10T15:45:45;13.40;66.30
41168;DHT22;26906;45.658;9.272;2023-01-10T15:54:00;13.30;66.80
41168;DHT22;26906;45.658;9.272;2023-01-10T15:56:37;13.20;66.40
41168;DHT22;26906;45.658;9.272;2023-01-10T15:59:17;13.20;67.10
41168;DHT22;26906;45.658;9.272;2023-01-10T16:01:55;13.10;67.50
41168;DHT22;26906;45.658;9.272;2023-01-10T16:04:21;13.00;68.20
41168;DHT22;26906;45.658;9.272;2023-01-10T16:06:51;12.90;69.10
41168;DHT22;26906;45.658;9.272;2023-01-10T16:09:21;12.80;68.80
41168;DHT22;26906;45.658;9.272;2023-01-10T16:11:49;12.70;69.30
41168;DHT22;26906;45.658;9.272;2023-01-10T16:14:33;12.60;69.00
41168;DHT22;26906;45.658;9.272;2023-01-10T16:17:03;12.50;69.70
41168;DHT22;26906;45.658;9.272;2023-01-10T16:19:29;12.40;69.80
41168;DHT22;26906;45.658;9.272;2023-01-10T16:21:56;12.40;69.70
41168;DHT22;26906;45.658;9.272;2023-01-10T16:24:31;12.30;71.30
41168;DHT22;26906;45.658;9.272;2023-01-10T16:27:01;12.30;72.50
41168;DHT22;26906;45.658;9.272;2023-01-10T16:29:28;12.30;72.90
41168;DHT22;26906;45.658;9.272;2023-01-10T16:31:53;12.30;72.80
41168;DHT22;26906;45.658;9.272;2023-01-10T16:34:20;12.20;72.30
41168;DHT22;26906;45.658;9.272;2023-01-10T16:36:48;12.10;72.60
41168;DHT22;26906;45.658;9.272;2023-01-10T16:39:19;12.10;72.40
41168;DHT22;26906;45.658;9.272;2023-01-10T16:41:45;12.10;73.40
41168;DHT22;26906;45.658;9.272;2023-01-10T16:44:31;11.90;73.10
41168;DHT22;26906;45.658;9.272;2023-01-10T16:46:59;12.00;72.90
41168;DHT22;26906;45.658;9.272;2023-01-10T16:49:26;12.00;72.00
41168;DHT22;26906;45.658;9.272;2023-01-10T16:51:52;12.00;72.60
41168;DHT22;26906;45.658;9.272;2023-01-10T16:54:22;11.90;72.40
41168;DHT22;26906;45.658;9.272;2023-01-10T16:56:51;11.90;71.10
41168;DHT22;26906;45.658;9.272;2023-01-10T16:59:17;12.00;69.20
41168;DHT22;26906;45.658;9.272;2023-01-10T17:01:46;12.00;69.00
41168;DHT22;26906;45.658;9.272;2023-01-10T17:04:20;12.00;68.70
41168;DHT22;26906;45.658;9.272;2023-01-10T17:06:46;12.00;68.10
41168;DHT22;26906;45.658;9.272;2023-01-10T17:09:26;12.00;67.50
41168;DHT22;26906;45.658;9.272;2023-01-10T17:12:00;11.80;67.20
41168;DHT22;26906;45.658;9.272;2023-01-10T17:14:33;11.90;67.60
41168;DHT22;26906;45.658;9.272;2023-01-10T17:16:59;12.00;67.60
41168;DHT22;26906;45.658;9.272;2023-01-10T17:19:25;11.90;68.30
41168;DHT22;26906;45.658;9.272;2023-01-10T17:21:51;11.70;68.60
41168;DHT22;26906;45.658;9.272;2023-01-10T17:24:17;11.70;69.20
41168;DHT22;26906;45.658;9.272;2023-01-10T17:26:42;11.70;69.60
41168;DHT22;26906;45.658;9.272;2023-01-10T17:29:08;11.60;70.90
41168;DHT22;26906;45.658;9.272;2023-01-10T17:31:34;11.70;70.50
41168;DHT22;26906;45.658;9.272;2023-01-10T17:34:00;11.50;70.30
41168;DHT22;26906;45.658;9.272;2023-01-10T17:36:25;11.50;70.60
41168;DHT22;26906;45.658;9.272;2023-01-10T17:38:55;11.40;70.40
41168;DHT22;26906;45.658;9.272;2023-01-10T17:41:20;11.60;70.10
41168;DHT22;26906;45.658;9.272;2023-01-10T17:43:47;11.60;69.30
41168;DHT22;26906;45.658;9.272;2023-01-10T17:46:16;11.70;69.90
41168;DHT22;26906;45.658;9.272;2023-01-10T17:48:46;11.70;68.80
41168;DHT22;26906;45.658;9.272;2023-01-10T17:51:12;11.70;68.70
41168;DHT22;26906;45.658;9.272;2023-01-10T17:53:39;11.80;68.80
41168;DHT22;26906;45.658;9.272;2023-01-10T17:56:05;11.70;69.40
41168;DHT22;26906;45.658;9.272;2023-01-10T17:58:31;11.70;69.30
41168;DHT22;26906;45.658;9.272;2023-01-10T18:00:57;11.70;68.20
41168;DHT22;26906;45.658;9.272;2023-01-10T18:03:23;11.80;68.10
41168;DHT22;26906;45.658;9.272;2023-01-10T18:05:54;11.70;69.20
41168;DHT22;26906;45.658;9.272;2023-01-10T18:08:20;11.70;69.50
41168;DHT22;26906;45.658;9.272;2023-01-10T18:10:48;11.40;69.50
41168;DHT22;26906;45.658;9.272;2023-01-10T18:13:15;11.40;70.30
41168;DHT22;26906;45.658;9.272;2023-01-10T18:15:45;11.30;70.90
41168;DHT22;26906;45.658;9.272;2023-01-10T18:18:11;11.30;71.30
41168;DHT22;26906;45.658;9.272;2023-01-10T18:20:41;11.20;71.60
41168;DHT22;26906;45.658;9.272;2023-01-10T18:23:15;11.20;71.70
41168;DHT22;26906;45.658;9.272;2023-01-10T18:26:02;11.10;71.40
41168;DHT22;26906;45.658;9.272;2023-01-10T18:28:33;11.10;71.50
41168;DHT22;26906;45.658;9.272;2023-01-10T18:31:05;11.10;71.80
41168;DHT22;26906;45.658;9.272;2023-01-10T18:33:32;10.90;71.50
41168;DHT22;26906;45.658;9.272;2023-01-10T18:36:01;10.90;72.00
41168;DHT22;26906;45.658;9.272;2023-01-10T18:38:31;10.80;72.00
41168;DHT22;26906;45.658;9.272;2023-01-10T18:40:57;10.70;71.00
41168;DHT22;26906;45.658;9.272;2023-01-10T18:43:22;10.80;71.70
41168;DHT22;26906;45.658;9.272;2023-01-10T18:46:01;10.80;71.60
41168;DHT22;26906;45.658;9.272;2023-01-10T18:48:27;10.80;71.40
41168;DHT22;26906;45.658;9.272;2023-01-10T18:50:54;10.80;71.30
41168;DHT22;26906;45.658;9.272;2023-01-10T18:53:20;10.70;71.60
41168;DHT22;26906;45.658;9.272;2023-01-10T18:55:59;10.70;71.60
41168;DHT22;26906;45.658;9.272;2023-01-10T18:58:28;10.70;72.10
41168;DHT22;26906;45.658;9.272;2023-01-10T19:00:54;10.70;71.70
41168;DHT22;26906;45.658;9.272;2023-01-10T19:03:20;10.70;71.40
41168;DHT22;26906;45.658;9.272;2023-01-10T19:05:46;10.80;72.20
41168;DHT22;26906;45.658;9.272;2023-01-10T19:08:12;10.80;71.70
41168;DHT22;26906;45.658;9.272;2023-01-10T19:10:42;10.70;71.70
41168;DHT22;26906;45.658;9.272;2023-01-10T19:13:08;10.70;71.80
41168;DHT22;26906;45.658;9.272;2023-01-10T19:15:34;10.70;71.90
41168;DHT22;26906;45.658;9.272;2023-01-10T19:18:01;10.60;72.30
41168;DHT22;26906;45.658;9.272;2023-01-10T19:20:26;10.60;72.60
41168;DHT22;26906;45.658;9.272;2023-01-10T19:22:53;10.60;72.80
41168;DHT22;26906;45.658;9.272;2023-01-10T19:25:18;10.50;74.60
41168;DHT22;26906;45.658;9.272;2023-01-10T19:27:45;10.50;74.20
41168;DHT22;26906;45.658;9.272;2023-01-10T19:30:11;10.40;75.30
41168;DHT22;26906;45.658;9.272;2023-01-10T19:32:40;10.30;75.80
41168;DHT22;26906;45.658;9.272;2023-01-10T19:35:06;10.30;78.10
41168;DHT22;26906;45.658;9.272;2023-01-10T19:37:31;10.30;77.80
41168;DHT22;26906;45.658;9.272;2023-01-10T19:39:58;10.30;78.10
41168;DHT22;26906;45.658;9.272;2023-01-10T19:42:24;10.30;79.10
41168;DHT22;26906;45.658;9.272;2023-01-10T19:44:50;10.20;79.70
41168;DHT22;26906;45.658;9.272;2023-01-10T19:47:15;10.10;79.30
41168;DHT22;26906;45.658;9.272;2023-01-10T19:49:41;10.00;79.60
41168;DHT22;26906;45.658;9.272;2023-01-10T19:52:07;10.10;78.80
41168;DHT22;26906;45.658;9.272;2023-01-10T19:54:33;10.10;79.30
41168;DHT22;26906;45.658;9.272;2023-01-10T19:57:02;10.10;77.90
41168;DHT22;26906;45.658;9.272;2023-01-10T19:59:28;10.10;79.70
41168;DHT22;26906;45.658;9.272;2023-01-10T20:01:56;9.90;81.70
41168;DHT22;26906;45.658;9.272;2023-01-10T20:04:22;9.90;84.70
41168;DHT22;26906;45.658;9.272;2023-01-10T20:06:48;9.70;85.00
41168;DHT22;26906;45.658;9.272;2023-01-10T20:09:14;9.60;85.10
41168;DHT22;26906;45.658;9.272;2023-01-10T20:11:40;9.70;82.90
41168;DHT22;26906;45.658;9.272;2023-01-10T20:14:14;9.70;83.50
41168;DHT22;26906;45.658;9.272;2023-01-10T20:16:41;9.60;85.60
41168;DHT22;26906;45.658;9.272;2023-01-10T20:19:08;9.50;85.70
41168;DHT22;26906;45.658;9.272;2023-01-10T20:21:35;9.50;86.20
41168;DHT22;26906;45.658;9.272;2023-01-10T20:24:02;9.50;83.80
41168;DHT22;26906;45.658;9.272;2023-01-10T20:26:28;9.50;84.30
41168;DHT22;26906;45.658;9.272;2023-01-10T20:29:00;9.50;82.90
41168;DHT22;26906;45.658;9.272;2023-01-10T20:31:27;9.20;83.70
41168;DHT22;26906;45.658;9.272;2023-01-10T20:33:54;9.20;85.40
41168;DHT22;26906;45.658;9.272;2023-01-10T20:36:22;9.30;85.10
41168;DHT22;26906;45.658;9.272;2023-01-10T20:38:48;9.00;87.30
41168;DHT22;26906;45.658;9.272;2023-01-10T20:41:19;9.10;90.30
41168;DHT22;26906;45.658;9.272;2023-01-10T20:43:45;8.80;90.90
41168;DHT22;26906;45.658;9.272;2023-01-10T20:46:13;8.60;91.50
41168;DHT22;26906;45.658;9.272;2023-01-10T20:48:40;8.70;91.70
41168;DHT22;26906;45.658;9.272;2023-01-10T20:51:11;8.70;92.20
41168;DHT22;26906;45.658;9.272;2023-01-10T20:53:40;8.60;92.00
41168;DHT22;26906;45.658;9.272;2023-01-10T20:56:09;8.60;91.90
41168;DHT22;26906;45.658;9.272;2023-01-10T20:58:36;8.60;90.40
41168;DHT22;26906;45.658;9.272;2023-01-10T21:01:05;8.80;91.30
41168;DHT22;26906;45.658;9.272;2023-01-10T21:03:32;8.80;91.40
41168;DHT22;26906;45.658;9.272;2023-01-10T21:05:58;8.70;91.30
41168;DHT22;26906;45.658;9.272;2023-01-10T21:08:25;8.60;93.50
41168;DHT22;26906;45.658;9.272;2023-01-10T21:10:51;8.40;93.90
41168;DHT22;26906;45.658;9.272;2023-01-10T21:13:17;8.30;94.40
41168;DHT22;26906;45.658;9.272;2023-01-10T21:15:45;8.30;95.10
41168;DHT22;26906;45.658;9.272;2023-01-10T21:18:13;8.30;94.70
41168;DHT22;26906;45.658;9.272;2023-01-10T21:20:43;8.40;94.60
41168;DHT22;26906;45.658;9.272;2023-01-10T21:23:10;8.30;95.30
